sensor_id;sensor_type;location;lat;lon;timestamp;P1;durP1;ratioP1;P2;durP2;ratioP2
42864;SDS011;28511;42.680;23.252;2022-09-17T00:01:41;2.50;;;1.20;;
42864;SDS011;28511;42.680;23.252;2022-09-17T00:04:06;2.67;;;1.42;;
42864;SDS011;28511;42.680;23.252;2022-09-17T00:06:33;1.15;;;1.02;;
42864;SDS011;28511;42.680;23.252;2022-09-17T00:08:58;1.67;;;1.08;;
42864;SDS011;28511;42.680;23.252;2022-09-17T00:11:25;2.50;;;1.17;;
42864;SDS011;28511;42.680;23.252;2022-09-17T00:13:51;1.48;;;0.70;;
42864;SDS011;28511;42.680;23.252;2022-09-17T00:16:21;5.18;;;2.15;;
42864;SDS011;28511;42.680;23.252;2022-09-17T00:18:46;1.27;;;0.80;;
42864;SDS011;28511;42.680;23.252;2022-09-17T00:21:18;3.58;;;1.30;;
42864;SDS011;28511;42.680;23.252;2022-09-17T00:23:44;3.92;;;1.50;;
42864;SDS011;28511;42.680;23.252;2022-09-17T00:26:09;5.03;;;2.13;;
42864;SDS011;28511;42.680;23.252;2022-09-17T00:28:34;4.78;;;1.15;;
42864;SDS011;28511;42.680;23.252;2022-09-17T00:31:00;1.85;;;1.55;;
42864;SDS011;28511;42.680;23.252;2022-09-17T00:33:25;2.53;;;1.05;;
42864;SDS011;28511;42.680;23.252;2022-09-17T00:35:57;6.50;;;1.23;;
42864;SDS011;28511;42.680;23.252;2022-09-17T00:38:24;1.52;;;0.90;;
42864;SDS011;28511;42.680;23.252;2022-09-17T00:40:49;2.40;;;1.50;;
42864;SDS011;28511;42.680;23.252;2022-09-17T00:43:29;5.75;;;1.77;;
42864;SDS011;28511;42.680;23.252;2022-09-17T00:45:57;6.35;;;1.42;;
42864;SDS011;28511;42.680;23.252;2022-09-17T00:48:22;2.53;;;0.98;;
42864;SDS011;28511;42.680;23.252;2022-09-17T00:50:47;1.17;;;0.80;;
42864;SDS011;28511;42.680;23.252;2022-09-17T00:53:13;2.40;;;1.83;;
42864;SDS011;28511;42.680;23.252;2022-09-17T00:55:41;2.25;;;1.23;;
42864;SDS011;28511;42.680;23.252;2022-09-17T00:58:07;4.35;;;1.92;;
42864;SDS011;28511;42.680;23.252;2022-09-17T01:00:33;2.45;;;1.27;;
42864;SDS011;28511;42.680;23.252;2022-09-17T01:02:59;4.60;;;1.40;;
42864;SDS011;28511;42.680;23.252;2022-09-17T01:05:38;1.73;;;1.17;;
42864;SDS011;28511;42.680;23.252;2022-09-17T01:08:07;3.63;;;1.58;;
42864;SDS011;28511;42.680;23.252;2022-09-17T01:15:54;6.13;;;1.67;;
42864;SDS011;28511;42.680;23.252;2022-09-17T01:18:23;1.70;;;1.20;;
42864;SDS011;28511;42.680;23.252;2022-09-17T01:31:36;1.75;;;1.17;;
42864;SDS011;28511;42.680;23.252;2022-09-17T01:36:43;2.22;;;1.50;;
42864;SDS011;28511;42.680;23.252;2022-09-17T01:44:15;2.28;;;0.93;;
42864;SDS011;28511;42.680;23.252;2022-09-17T01:46:52;3.22;;;1.73;;
42864;SDS011;28511;42.680;23.252;2022-09-17T01:49:19;1.23;;;1.00;;
42864;SDS011;28511;42.680;23.252;2022-09-17T01:51:46;4.22;;;1.83;;
42864;SDS011;28511;42.680;23.252;2022-09-17T01:59:36;7.80;;;2.30;;
42864;SDS011;28511;42.680;23.252;2022-09-17T02:02:05;1.85;;;1.30;;
42864;SDS011;28511;42.680;23.252;2022-09-17T02:04:36;3.50;;;2.22;;
42864;SDS011;28511;42.680;23.252;2022-09-17T02:07:05;3.17;;;2.30;;
42864;SDS011;28511;42.680;23.252;2022-09-17T02:09:35;7.97;;;1.70;;
42864;SDS011;28511;42.680;23.252;2022-09-17T02:12:02;3.72;;;2.35;;
42864;SDS011;28511;42.680;23.252;2022-09-17T02:14:37;1.48;;;1.38;;
42864;SDS011;28511;42.680;23.252;2022-09-17T02:17:11;5.30;;;1.98;;
42864;SDS011;28511;42.680;23.252;2022-09-17T02:19:38;3.92;;;2.25;;
42864;SDS011;28511;42.680;23.252;2022-09-17T02:24:34;4.90;;;2.08;;
42864;SDS011;28511;42.680;23.252;2022-09-17T02:27:02;3.95;;;2.45;;
42864;SDS011;28511;42.680;23.252;2022-09-17T02:29:36;3.40;;;2.00;;
42864;SDS011;28511;42.680;23.252;2022-09-17T02:32:02;5.40;;;2.80;;
42864;SDS011;28511;42.680;23.252;2022-09-17T02:34:28;7.88;;;3.67;;
42864;SDS011;28511;42.680;23.252;2022-09-17T02:36:54;5.32;;;1.95;;
42864;SDS011;28511;42.680;23.252;2022-09-17T02:39:19;2.45;;;2.17;;
42864;SDS011;28511;42.680;23.252;2022-09-17T02:57:54;4.38;;;2.20;;
42864;SDS011;28511;42.680;23.252;2022-09-17T03:00:23;4.00;;;2.22;;
42864;SDS011;28511;42.680;23.252;2022-09-17T03:05:16;3.88;;;1.77;;
42864;SDS011;28511;42.680;23.252;2022-09-17T03:07:42;4.68;;;1.75;;
42864;SDS011;28511;42.680;23.252;2022-09-17T03:10:08;4.10;;;2.42;;
42864;SDS011;28511;42.680;23.252;2022-09-17T03:12:34;5.28;;;1.88;;
42864;SDS011;28511;42.680;23.252;2022-09-17T03:14:59;6.13;;;2.38;;
42864;SDS011;28511;42.680;23.252;2022-09-17T03:17:25;4.97;;;2.83;;
42864;SDS011;28511;42.680;23.252;2022-09-17T03:19:50;6.80;;;2.80;;
42864;SDS011;28511;42.680;23.252;2022-09-17T03:22:15;3.53;;;2.37;;
42864;SDS011;28511;42.680;23.252;2022-09-17T03:24:42;4.10;;;1.90;;
42864;SDS011;28511;42.680;23.252;2022-09-17T03:27:07;5.18;;;2.90;;
42864;SDS011;28511;42.680;23.252;2022-09-17T03:29:32;2.38;;;1.55;;
42864;SDS011;28511;42.680;23.252;2022-09-17T03:31:57;5.07;;;2.03;;
42864;SDS011;28511;42.680;23.252;2022-09-17T03:34:24;2.60;;;1.35;;
42864;SDS011;28511;42.680;23.252;2022-09-17T03:36:49;6.07;;;2.85;;
42864;SDS011;28511;42.680;23.252;2022-09-17T03:39:14;5.00;;;2.95;;
42864;SDS011;28511;42.680;23.252;2022-09-17T03:41:40;5.80;;;2.33;;
42864;SDS011;28511;42.680;23.252;2022-09-17T03:44:05;4.17;;;1.97;;
42864;SDS011;28511;42.680;23.252;2022-09-17T03:46:30;4.88;;;2.28;;
42864;SDS011;28511;42.680;23.252;2022-09-17T03:48:56;3.63;;;1.73;;
42864;SDS011;28511;42.680;23.252;2022-09-17T03:51:21;3.20;;;1.80;;
42864;SDS011;28511;42.680;23.252;2022-09-17T03:53:46;3.65;;;1.85;;
42864;SDS011;28511;42.680;23.252;2022-09-17T03:56:12;3.47;;;1.90;;
42864;SDS011;28511;42.680;23.252;2022-09-17T03:58:37;2.92;;;1.73;;
42864;SDS011;28511;42.680;23.252;2022-09-17T04:01:03;6.60;;;2.20;;
42864;SDS011;28511;42.680;23.252;2022-09-17T04:03:28;2.75;;;1.98;;
42864;SDS011;28511;42.680;23.252;2022-09-17T04:05:54;3.47;;;1.50;;
42864;SDS011;28511;42.680;23.252;2022-09-17T04:08:19;2.38;;;1.45;;
42864;SDS011;28511;42.680;23.252;2022-09-17T04:10:45;3.22;;;2.78;;
42864;SDS011;28511;42.680;23.252;2022-09-17T04:13:12;3.33;;;1.92;;
42864;SDS011;28511;42.680;23.252;2022-09-17T04:15:37;4.00;;;2.30;;
42864;SDS011;28511;42.680;23.252;2022-09-17T04:18:03;2.83;;;1.98;;
42864;SDS011;28511;42.680;23.252;2022-09-17T04:20:29;4.18;;;1.50;;
42864;SDS011;28511;42.680;23.252;2022-09-17T04:22:55;4.53;;;2.33;;
42864;SDS011;28511;42.680;23.252;2022-09-17T04:25:20;3.85;;;1.77;;
42864;SDS011;28511;42.680;23.252;2022-09-17T04:27:45;4.20;;;1.80;;
42864;SDS011;28511;42.680;23.252;2022-09-17T04:30:11;5.25;;;2.50;;
42864;SDS011;28511;42.680;23.252;2022-09-17T04:32:37;3.22;;;1.85;;
42864;SDS011;28511;42.680;23.252;2022-09-17T04:35:02;2.00;;;1.55;;
42864;SDS011;28511;42.680;23.252;2022-09-17T04:37:28;3.03;;;2.00;;
42864;SDS011;28511;42.680;23.252;2022-09-17T04:39:53;4.45;;;1.83;;
42864;SDS011;28511;42.680;23.252;2022-09-17T04:42:18;3.45;;;1.60;;
42864;SDS011;28511;42.680;23.252;2022-09-17T04:44:44;4.60;;;2.67;;
42864;SDS011;28511;42.680;23.252;2022-09-17T04:47:09;2.90;;;1.20;;
42864;SDS011;28511;42.680;23.252;2022-09-17T04:49:34;3.30;;;1.42;;
42864;SDS011;28511;42.680;23.252;2022-09-17T04:51:59;3.10;;;1.17;;
42864;SDS011;28511;42.680;23.252;2022-09-17T04:54:25;4.03;;;2.10;;
42864;SDS011;28511;42.680;23.252;2022-09-17T04:56:50;0.63;;;0.63;;
42864;SDS011;28511;42.680;23.252;2022-09-17T04:59:15;2.17;;;1.08;;
42864;SDS011;28511;42.680;23.252;2022-09-17T05:01:41;1.13;;;0.80;;
42864;SDS011;28511;42.680;23.252;2022-09-17T05:04:09;7.80;;;2.38;;
42864;SDS011;28511;42.680;23.252;2022-09-17T05:09:41;3.30;;;1.83;;
42864;SDS011;28511;42.680;23.252;2022-09-17T05:12:06;4.25;;;1.80;;
42864;SDS011;28511;42.680;23.252;2022-09-17T05:14:32;3.58;;;1.23;;
42864;SDS011;28511;42.680;23.252;2022-09-17T05:16:57;3.03;;;1.35;;
42864;SDS011;28511;42.680;23.252;2022-09-17T05:19:22;4.80;;;1.70;;
42864;SDS011;28511;42.680;23.252;2022-09-17T05:21:48;1.13;;;1.00;;
42864;SDS011;28511;42.680;23.252;2022-09-17T05:24:13;1.13;;;0.80;;
42864;SDS011;28511;42.680;23.252;2022-09-17T05:26:40;3.60;;;2.00;;
42864;SDS011;28511;42.680;23.252;2022-09-17T05:29:06;2.92;;;0.95;;
42864;SDS011;28511;42.680;23.252;2022-09-17T05:43:33;3.17;;;0.93;;
42864;SDS011;28511;42.680;23.252;2022-09-17T05:48:56;2.92;;;1.77;;
42864;SDS011;28511;42.680;23.252;2022-09-17T05:51:40;1.90;;;0.85;;
42864;SDS011;28511;42.680;23.252;2022-09-17T05:54:09;5.13;;;1.40;;
42864;SDS011;28511;42.680;23.252;2022-09-17T05:56:34;1.30;;;0.90;;
42864;SDS011;28511;42.680;23.252;2022-09-17T05:59:10;4.75;;;1.02;;
42864;SDS011;28511;42.680;23.252;2022-09-17T06:01:51;2.28;;;0.93;;
42864;SDS011;28511;42.680;23.252;2022-09-17T06:04:17;2.20;;;1.20;;
42864;SDS011;28511;42.680;23.252;2022-09-17T06:06:43;2.15;;;1.45;;
42864;SDS011;28511;42.680;23.252;2022-09-17T06:09:10;4.88;;;1.88;;
42864;SDS011;28511;42.680;23.252;2022-09-17T06:14:41;3.30;;;1.63;;
42864;SDS011;28511;42.680;23.252;2022-09-17T06:17:10;2.85;;;1.25;;
42864;SDS011;28511;42.680;23.252;2022-09-17T06:19:39;4.72;;;1.10;;
42864;SDS011;28511;42.680;23.252;2022-09-17T06:24:51;2.88;;;1.35;;
42864;SDS011;28511;42.680;23.252;2022-09-17T06:27:29;1.63;;;1.13;;
42864;SDS011;28511;42.680;23.252;2022-09-17T06:30:12;1.70;;;0.80;;
42864;SDS011;28511;42.680;23.252;2022-09-17T06:35:25;1.08;;;1.02;;
42864;SDS011;28511;42.680;23.252;2022-09-17T06:37:50;1.13;;;0.77;;
42864;SDS011;28511;42.680;23.252;2022-09-17T06:40:15;1.50;;;1.07;;
42864;SDS011;28511;42.680;23.252;2022-09-17T06:42:41;0.65;;;0.65;;
42864;SDS011;28511;42.680;23.252;2022-09-17T06:45:07;3.08;;;1.13;;
42864;SDS011;28511;42.680;23.252;2022-09-17T06:47:32;0.95;;;0.80;;
42864;SDS011;28511;42.680;23.252;2022-09-17T06:49:57;1.63;;;1.17;;
42864;SDS011;28511;42.680;23.252;2022-09-17T06:52:23;1.38;;;1.10;;
42864;SDS011;28511;42.680;23.252;2022-09-17T06:54:49;1.00;;;0.82;;
42864;SDS011;28511;42.680;23.252;2022-09-17T06:57:14;3.60;;;0.75;;
42864;SDS011;28511;42.680;23.252;2022-09-17T06:59:39;2.20;;;1.98;;
42864;SDS011;28511;42.680;23.252;2022-09-17T07:02:07;0.80;;;0.77;;
42864;SDS011;28511;42.680;23.252;2022-09-17T07:04:33;1.98;;;0.80;;
42864;SDS011;28511;42.680;23.252;2022-09-17T07:06:58;1.67;;;0.80;;
42864;SDS011;28511;42.680;23.252;2022-09-17T07:09:23;2.95;;;1.85;;
42864;SDS011;28511;42.680;23.252;2022-09-17T07:11:48;3.72;;;1.55;;
42864;SDS011;28511;42.680;23.252;2022-09-17T07:14:14;1.65;;;0.95;;
42864;SDS011;28511;42.680;23.252;2022-09-17T07:16:39;6.85;;;1.42;;
42864;SDS011;28511;42.680;23.252;2022-09-17T07:19:04;3.08;;;1.75;;
42864;SDS011;28511;42.680;23.252;2022-09-17T07:21:30;1.20;;;1.05;;
42864;SDS011;28511;42.680;23.252;2022-09-17T07:23:55;2.33;;;1.40;;
42864;SDS011;28511;42.680;23.252;2022-09-17T07:26:21;3.28;;;1.75;;
42864;SDS011;28511;42.680;23.252;2022-09-17T07:28:46;5.25;;;1.20;;
42864;SDS011;28511;42.680;23.252;2022-09-17T07:31:11;1.55;;;1.00;;
42864;SDS011;28511;42.680;23.252;2022-09-17T07:33:37;3.58;;;2.13;;
42864;SDS011;28511;42.680;23.252;2022-09-17T07:36:04;1.15;;;0.98;;
42864;SDS011;28511;42.680;23.252;2022-09-17T07:38:30;3.33;;;0.80;;
42864;SDS011;28511;42.680;23.252;2022-09-17T07:40:56;1.40;;;1.02;;
42864;SDS011;28511;42.680;23.252;2022-09-17T07:43:23;1.85;;;1.23;;
42864;SDS011;28511;42.680;23.252;2022-09-17T07:45:49;1.52;;;1.08;;
42864;SDS011;28511;42.680;23.252;2022-09-17T07:48:15;2.38;;;1.55;;
42864;SDS011;28511;42.680;23.252;2022-09-17T07:50:40;3.70;;;1.65;;
42864;SDS011;28511;42.680;23.252;2022-09-17T07:53:15;2.70;;;1.60;;
42864;SDS011;28511;42.680;23.252;2022-09-17T07:55:50;2.50;;;1.63;;
42864;SDS011;28511;42.680;23.252;2022-09-17T07:58:20;3.25;;;1.50;;
42864;SDS011;28511;42.680;23.252;2022-09-17T08:06:40;4.40;;;1.70;;
42864;SDS011;28511;42.680;23.252;2022-09-17T08:12:05;4.80;;;2.25;;
42864;SDS011;28511;42.680;23.252;2022-09-17T08:14:31;3.70;;;1.83;;
42864;SDS011;28511;42.680;23.252;2022-09-17T08:16:56;2.78;;;1.83;;
42864;SDS011;28511;42.680;23.252;2022-09-17T08:19:34;4.82;;;2.50;;
42864;SDS011;28511;42.680;23.252;2022-09-17T08:22:02;4.78;;;2.00;;
42864;SDS011;28511;42.680;23.252;2022-09-17T08:24:28;4.70;;;2.15;;
42864;SDS011;28511;42.680;23.252;2022-09-17T08:26:53;6.05;;;1.85;;
42864;SDS011;28511;42.680;23.252;2022-09-17T08:29:32;4.20;;;1.92;;
42864;SDS011;28511;42.680;23.252;2022-09-17T08:32:02;3.87;;;1.70;;
42864;SDS011;28511;42.680;23.252;2022-09-17T08:34:32;4.03;;;1.55;;
42864;SDS011;28511;42.680;23.252;2022-09-17T08:36:58;3.50;;;1.60;;
42864;SDS011;28511;42.680;23.252;2022-09-17T08:44:43;5.55;;;2.13;;
42864;SDS011;28511;42.680;23.252;2022-09-17T09:06:15;3.75;;;1.58;;
42864;SDS011;28511;42.680;23.252;2022-09-17T09:08:45;2.08;;;1.27;;
42864;SDS011;28511;42.680;23.252;2022-09-17T09:11:13;4.65;;;1.90;;
42864;SDS011;28511;42.680;23.252;2022-09-17T09:13:46;4.15;;;1.75;;
42864;SDS011;28511;42.680;23.252;2022-09-17T09:16:50;2.72;;;1.48;;
42864;SDS011;28511;42.680;23.252;2022-09-17T09:22:02;4.95;;;2.17;;
42864;SDS011;28511;42.680;23.252;2022-09-17T09:27:20;4.70;;;1.50;;
42864;SDS011;28511;42.680;23.252;2022-09-17T09:29:52;4.18;;;2.30;;
42864;SDS011;28511;42.680;23.252;2022-09-17T09:38:31;2.45;;;1.85;;
42864;SDS011;28511;42.680;23.252;2022-09-17T09:40:39;3.50;;;1.90;;
42864;SDS011;28511;42.680;23.252;2022-09-17T09:43:11;2.65;;;1.50;;
42864;SDS011;28511;42.680;23.252;2022-09-17T09:45:55;3.80;;;1.75;;
42864;SDS011;28511;42.680;23.252;2022-09-17T09:48:26;3.40;;;1.80;;
42864;SDS011;28511;42.680;23.252;2022-09-17T09:53:52;7.70;;;3.60;;
42864;SDS011;28511;42.680;23.252;2022-09-17T09:58:59;6.05;;;2.00;;
42864;SDS011;28511;42.680;23.252;2022-09-17T10:01:26;5.30;;;1.92;;
42864;SDS011;28511;42.680;23.252;2022-09-17T10:03:59;3.50;;;2.25;;
42864;SDS011;28511;42.680;23.252;2022-09-17T10:06:28;3.75;;;2.20;;
42864;SDS011;28511;42.680;23.252;2022-09-17T10:11:22;4.83;;;2.00;;
42864;SDS011;28511;42.680;23.252;2022-09-17T10:14:12;4.03;;;2.47;;
42864;SDS011;28511;42.680;23.252;2022-09-17T10:16:41;6.72;;;3.72;;
42864;SDS011;28511;42.680;23.252;2022-09-17T10:26:45;1.95;;;1.15;;
42864;SDS011;28511;42.680;23.252;2022-09-17T10:29:14;3.33;;;2.10;;
42864;SDS011;28511;42.680;23.252;2022-09-17T10:31:59;2.92;;;1.75;;
42864;SDS011;28511;42.680;23.252;2022-09-17T10:34:26;2.97;;;2.13;;
42864;SDS011;28511;42.680;23.252;2022-09-17T10:37:04;6.32;;;2.25;;
42864;SDS011;28511;42.680;23.252;2022-09-17T10:45:22;3.97;;;2.10;;
42864;SDS011;28511;42.680;23.252;2022-09-17T10:48:02;6.18;;;2.22;;
42864;SDS011;28511;42.680;23.252;2022-09-17T10:50:33;3.95;;;1.88;;
42864;SDS011;28511;42.680;23.252;2022-09-17T10:53:03;4.05;;;1.90;;
42864;SDS011;28511;42.680;23.252;2022-09-17T10:58:42;2.70;;;1.88;;
42864;SDS011;28511;42.680;23.252;2022-09-17T11:14:31;5.10;;;1.30;;
42864;SDS011;28511;42.680;23.252;2022-09-17T11:24:57;2.80;;;1.85;;
42864;SDS011;28511;42.680;23.252;2022-09-17T11:27:33;3.22;;;1.88;;
42864;SDS011;28511;42.680;23.252;2022-09-17T11:35:22;4.60;;;1.00;;
42864;SDS011;28511;42.680;23.252;2022-09-17T11:37:50;2.65;;;1.50;;
42864;SDS011;28511;42.680;23.252;2022-09-17T11:42:58;0.63;;;0.30;;
42864;SDS011;28511;42.680;23.252;2022-09-17T11:45:27;1.67;;;0.20;;
42864;SDS011;28511;42.680;23.252;2022-09-17T11:48:02;0.22;;;0.22;;
42864;SDS011;28511;42.680;23.252;2022-09-17T11:50:35;0.98;;;0.82;;
42864;SDS011;28511;42.680;23.252;2022-09-17T11:53:14;0.43;;;0.40;;
42864;SDS011;28511;42.680;23.252;2022-09-17T11:56:16;0.40;;;0.40;;
42864;SDS011;28511;42.680;23.252;2022-09-17T11:58:43;0.35;;;0.35;;
42864;SDS011;28511;42.680;23.252;2022-09-17T12:01:17;1.85;;;0.60;;
42864;SDS011;28511;42.680;23.252;2022-09-17T12:04:00;2.08;;;0.47;;
42864;SDS011;28511;42.680;23.252;2022-09-17T12:06:49;0.70;;;0.55;;
42864;SDS011;28511;42.680;23.252;2022-09-17T12:09:16;0.80;;;0.40;;
42864;SDS011;28511;42.680;23.252;2022-09-17T12:11:45;0.65;;;0.43;;
42864;SDS011;28511;42.680;23.252;2022-09-17T12:14:25;0.32;;;0.20;;
42864;SDS011;28511;42.680;23.252;2022-09-17T12:16:58;0.30;;;0.30;;
42864;SDS011;28511;42.680;23.252;2022-09-17T12:24:44;0.70;;;0.35;;
42864;SDS011;28511;42.680;23.252;2022-09-17T12:27:26;2.63;;;0.60;;
42864;SDS011;28511;42.680;23.252;2022-09-17T12:55:42;0.68;;;0.40;;
42864;SDS011;28511;42.680;23.252;2022-09-17T13:01:01;0.32;;;0.30;;
42864;SDS011;28511;42.680;23.252;2022-09-17T13:03:29;0.20;;;0.20;;
42864;SDS011;28511;42.680;23.252;2022-09-17T13:14:00;2.13;;;0.60;;
42864;SDS011;28511;42.680;23.252;2022-09-17T13:16:36;0.47;;;0.47;;
42864;SDS011;28511;42.680;23.252;2022-09-17T13:21:51;0.30;;;0.30;;
42864;SDS011;28511;42.680;23.252;2022-09-17T13:24:20;0.38;;;0.20;;
42864;SDS011;28511;42.680;23.252;2022-09-17T13:26:46;0.40;;;0.40;;
42864;SDS011;28511;42.680;23.252;2022-09-17T13:29:12;3.00;;;0.73;;
42864;SDS011;28511;42.680;23.252;2022-09-17T13:31:57;0.30;;;0.30;;
42864;SDS011;28511;42.680;23.252;2022-09-17T13:34:26;0.77;;;0.43;;
42864;SDS011;28511;42.680;23.252;2022-09-17T13:36:56;1.55;;;0.43;;
42864;SDS011;28511;42.680;23.252;2022-09-17T13:39:38;0.28;;;0.28;;
42864;SDS011;28511;42.680;23.252;2022-09-17T13:44:45;0.27;;;0.27;;
42864;SDS011;28511;42.680;23.252;2022-09-17T13:49:43;0.57;;;0.55;;
42864;SDS011;28511;42.680;23.252;2022-09-17T13:52:09;0.38;;;0.38;;
42864;SDS011;28511;42.680;23.252;2022-09-17T13:54:35;0.50;;;0.50;;
42864;SDS011;28511;42.680;23.252;2022-09-17T13:57:08;0.20;;;0.20;;
42864;SDS011;28511;42.680;23.252;2022-09-17T13:59:34;0.20;;;0.20;;
42864;SDS011;28511;42.680;23.252;2022-09-17T14:15:02;0.20;;;0.20;;
42864;SDS011;28511;42.680;23.252;2022-09-17T14:17:47;0.50;;;0.50;;
42864;SDS011;28511;42.680;23.252;2022-09-17T14:20:15;1.75;;;0.60;;
42864;SDS011;28511;42.680;23.252;2022-09-17T14:22:41;0.80;;;0.63;;
42864;SDS011;28511;42.680;23.252;2022-09-17T14:25:14;1.67;;;0.85;;
42864;SDS011;28511;42.680;23.252;2022-09-17T14:27:48;6.07;;;2.80;;
42864;SDS011;28511;42.680;23.252;2022-09-17T14:30:25;11.85;;;6.63;;
42864;SDS011;28511;42.680;23.252;2022-09-17T14:37:56;14.98;;;6.65;;
42864;SDS011;28511;42.680;23.252;2022-09-17T14:40:22;3.83;;;2.03;;
42864;SDS011;28511;42.680;23.252;2022-09-17T14:42:48;7.75;;;3.15;;
42864;SDS011;28511;42.680;23.252;2022-09-17T14:45:16;5.78;;;3.55;;
42864;SDS011;28511;42.680;23.252;2022-09-17T14:47:41;9.00;;;4.25;;
42864;SDS011;28511;42.680;23.252;2022-09-17T14:50:20;5.25;;;2.83;;
42864;SDS011;28511;42.680;23.252;2022-09-17T14:52:49;6.15;;;3.28;;
42864;SDS011;28511;42.680;23.252;2022-09-17T14:55:25;4.65;;;2.42;;
42864;SDS011;28511;42.680;23.252;2022-09-17T14:57:54;5.40;;;2.50;;
42864;SDS011;28511;42.680;23.252;2022-09-17T15:00:36;4.38;;;2.63;;
42864;SDS011;28511;42.680;23.252;2022-09-17T15:03:02;6.45;;;2.53;;
42864;SDS011;28511;42.680;23.252;2022-09-17T15:05:31;1.85;;;1.45;;
42864;SDS011;28511;42.680;23.252;2022-09-17T15:08:14;3.75;;;2.00;;
42864;SDS011;28511;42.680;23.252;2022-09-17T15:11:00;5.03;;;1.92;;
42864;SDS011;28511;42.680;23.252;2022-09-17T15:13:30;8.68;;;2.50;;
42864;SDS011;28511;42.680;23.252;2022-09-17T15:18:20;8.17;;;4.43;;
42864;SDS011;28511;42.680;23.252;2022-09-17T15:20:48;9.43;;;5.57;;
42864;SDS011;28511;42.680;23.252;2022-09-17T15:23:17;7.95;;;3.75;;
42864;SDS011;28511;42.680;23.252;2022-09-17T15:25:43;8.85;;;2.80;;
42864;SDS011;28511;42.680;23.252;2022-09-17T15:28:16;4.57;;;2.47;;
42864;SDS011;28511;42.680;23.252;2022-09-17T15:30:44;6.88;;;2.88;;
42864;SDS011;28511;42.680;23.252;2022-09-17T15:35:40;5.95;;;3.35;;
42864;SDS011;28511;42.680;23.252;2022-09-17T15:38:25;5.97;;;3.47;;
42864;SDS011;28511;42.680;23.252;2022-09-17T15:40:50;5.35;;;2.58;;
42864;SDS011;28511;42.680;23.252;2022-09-17T15:45:41;7.37;;;4.77;;
42864;SDS011;28511;42.680;23.252;2022-09-17T15:50:56;4.22;;;2.08;;
42864;SDS011;28511;42.680;23.252;2022-09-17T15:53:22;2.38;;;1.20;;
42864;SDS011;28511;42.680;23.252;2022-09-17T15:56:04;6.13;;;1.83;;
42864;SDS011;28511;42.680;23.252;2022-09-17T16:08:46;2.85;;;1.98;;
42864;SDS011;28511;42.680;23.252;2022-09-17T16:11:13;1.02;;;0.85;;
42864;SDS011;28511;42.680;23.252;2022-09-17T16:13:38;2.85;;;1.25;;
42864;SDS011;28511;42.680;23.252;2022-09-17T16:16:04;2.42;;;1.35;;
42864;SDS011;28511;42.680;23.252;2022-09-17T16:18:29;2.95;;;2.00;;
42864;SDS011;28511;42.680;23.252;2022-09-17T16:20:54;3.13;;;2.03;;
42864;SDS011;28511;42.680;23.252;2022-09-17T16:23:20;2.13;;;1.23;;
42864;SDS011;28511;42.680;23.252;2022-09-17T16:25:45;2.35;;;1.45;;
42864;SDS011;28511;42.680;23.252;2022-09-17T16:28:13;1.65;;;1.30;;
42864;SDS011;28511;42.680;23.252;2022-09-17T16:33:13;0.85;;;0.73;;
42864;SDS011;28511;42.680;23.252;2022-09-17T16:35:39;1.80;;;1.23;;
42864;SDS011;28511;42.680;23.252;2022-09-17T16:38:08;0.98;;;0.88;;
42864;SDS011;28511;42.680;23.252;2022-09-17T16:40:38;2.83;;;1.88;;
42864;SDS011;28511;42.680;23.252;2022-09-17T16:45:29;2.47;;;1.63;;
42864;SDS011;28511;42.680;23.252;2022-09-17T16:47:56;1.85;;;1.30;;
42864;SDS011;28511;42.680;23.252;2022-09-17T16:50:38;2.25;;;1.17;;
42864;SDS011;28511;42.680;23.252;2022-09-17T16:53:04;3.95;;;1.80;;
42864;SDS011;28511;42.680;23.252;2022-09-17T16:55:31;1.65;;;1.23;;
42864;SDS011;28511;42.680;23.252;2022-09-17T16:58:02;1.92;;;1.25;;
42864;SDS011;28511;42.680;23.252;2022-09-17T17:00:45;4.68;;;1.65;;
42864;SDS011;28511;42.680;23.252;2022-09-17T17:03:11;4.72;;;1.98;;
42864;SDS011;28511;42.680;23.252;2022-09-17T17:05:39;2.80;;;1.08;;
42864;SDS011;28511;42.680;23.252;2022-09-17T17:08:05;2.20;;;1.17;;
42864;SDS011;28511;42.680;23.252;2022-09-17T17:10:30;4.20;;;1.30;;
42864;SDS011;28511;42.680;23.252;2022-09-17T17:12:55;1.35;;;1.00;;
42864;SDS011;28511;42.680;23.252;2022-09-17T17:15:23;1.40;;;0.98;;
42864;SDS011;28511;42.680;23.252;2022-09-17T17:17:48;2.38;;;0.98;;
42864;SDS011;28511;42.680;23.252;2022-09-17T17:20:14;0.70;;;0.68;;
42864;SDS011;28511;42.680;23.252;2022-09-17T17:22:42;1.92;;;1.15;;
42864;SDS011;28511;42.680;23.252;2022-09-17T17:25:08;2.00;;;1.02;;
42864;SDS011;28511;42.680;23.252;2022-09-17T17:27:33;1.55;;;0.90;;
42864;SDS011;28511;42.680;23.252;2022-09-17T17:29:59;1.80;;;1.52;;
42864;SDS011;28511;42.680;23.252;2022-09-17T17:32:30;5.28;;;1.42;;
42864;SDS011;28511;42.680;23.252;2022-09-17T17:34:56;3.05;;;1.48;;
42864;SDS011;28511;42.680;23.252;2022-09-17T17:37:22;1.85;;;1.20;;
42864;SDS011;28511;42.680;23.252;2022-09-17T17:39:47;2.05;;;1.15;;
42864;SDS011;28511;42.680;23.252;2022-09-17T17:42:13;2.35;;;1.30;;
42864;SDS011;28511;42.680;23.252;2022-09-17T17:44:38;2.90;;;1.40;;
42864;SDS011;28511;42.680;23.252;2022-09-17T17:47:03;2.60;;;1.48;;
42864;SDS011;28511;42.680;23.252;2022-09-17T17:49:30;1.70;;;0.90;;
42864;SDS011;28511;42.680;23.252;2022-09-17T17:51:55;3.95;;;1.08;;
42864;SDS011;28511;42.680;23.252;2022-09-17T17:54:21;0.95;;;0.70;;
42864;SDS011;28511;42.680;23.252;2022-09-17T17:56:46;4.00;;;0.93;;
42864;SDS011;28511;42.680;23.252;2022-09-17T17:59:11;2.30;;;1.30;;
42864;SDS011;28511;42.680;23.252;2022-09-17T18:01:37;2.20;;;1.13;;
42864;SDS011;28511;42.680;23.252;2022-09-17T18:04:03;2.50;;;1.63;;
42864;SDS011;28511;42.680;23.252;2022-09-17T18:06:29;1.73;;;1.00;;
42864;SDS011;28511;42.680;23.252;2022-09-17T18:08:54;2.13;;;1.13;;
42864;SDS011;28511;42.680;23.252;2022-09-17T18:11:20;5.53;;;1.38;;
42864;SDS011;28511;42.680;23.252;2022-09-17T18:13:49;3.45;;;1.23;;
42864;SDS011;28511;42.680;23.252;2022-09-17T18:16:14;4.25;;;1.08;;
42864;SDS011;28511;42.680;23.252;2022-09-17T18:18:40;2.67;;;1.50;;
42864;SDS011;28511;42.680;23.252;2022-09-17T18:21:20;3.15;;;1.73;;
42864;SDS011;28511;42.680;23.252;2022-09-17T18:23:46;2.88;;;1.55;;
42864;SDS011;28511;42.680;23.252;2022-09-17T18:26:16;4.72;;;1.42;;
42864;SDS011;28511;42.680;23.252;2022-09-17T18:28:42;4.20;;;1.83;;
42864;SDS011;28511;42.680;23.252;2022-09-17T18:33:35;5.28;;;2.00;;
42864;SDS011;28511;42.680;23.252;2022-09-17T18:36:02;3.97;;;2.33;;
42864;SDS011;28511;42.680;23.252;2022-09-17T18:38:27;7.97;;;2.05;;
42864;SDS011;28511;42.680;23.252;2022-09-17T18:40:53;1.98;;;1.60;;
42864;SDS011;28511;42.680;23.252;2022-09-17T18:43:18;3.35;;;1.95;;
42864;SDS011;28511;42.680;23.252;2022-09-17T18:45:53;1.63;;;1.33;;
42864;SDS011;28511;42.680;23.252;2022-09-17T18:48:21;2.47;;;1.67;;
42864;SDS011;28511;42.680;23.252;2022-09-17T18:50:59;3.10;;;1.38;;
42864;SDS011;28511;42.680;23.252;2022-09-17T18:53:25;3.00;;;1.58;;
42864;SDS011;28511;42.680;23.252;2022-09-17T18:55:51;7.63;;;2.00;;
42864;SDS011;28511;42.680;23.252;2022-09-17T18:58:17;2.22;;;1.30;;
42864;SDS011;28511;42.680;23.252;2022-09-17T19:00:42;2.13;;;1.55;;
42864;SDS011;28511;42.680;23.252;2022-09-17T19:03:08;1.20;;;1.02;;
42864;SDS011;28511;42.680;23.252;2022-09-17T19:05:33;2.40;;;1.20;;
42864;SDS011;28511;42.680;23.252;2022-09-17T19:07:58;1.98;;;1.00;;
42864;SDS011;28511;42.680;23.252;2022-09-17T19:10:24;1.75;;;1.40;;
42864;SDS011;28511;42.680;23.252;2022-09-17T19:12:50;1.60;;;1.15;;